sensor_id;sensor_type;location;lat;lon;timestamp;P1;durP1;ratioP1;P2;durP2;ratioP2
18445;SDS011;9352;50.888;4.466;2023-01-16T00:01:45;7.60;;;1.47;;
18445;SDS011;9352;50.888;4.466;2023-01-16T00:04:12;9.33;;;1.53;;
18445;SDS011;9352;50.888;4.466;2023-01-16T00:06:39;5.83;;;1.73;;
18445;SDS011;9352;50.888;4.466;2023-01-16T00:09:07;4.50;;;1.30;;
18445;SDS011;9352;50.888;4.466;2023-01-16T00:11:34;7.17;;;1.37;;
18445;SDS011;9352;50.888;4.466;2023-01-16T00:14:01;5.93;;;1.40;;
18445;SDS011;9352;50.888;4.466;2023-01-16T00:16:28;2.47;;;1.08;;
18445;SDS011;9352;50.888;4.466;2023-01-16T00:18:55;4.57;;;1.20;;
18445;SDS011;9352;50.888;4.466;2023-01-16T00:21:22;2.13;;;1.10;;
18445;SDS011;9352;50.888;4.466;2023-01-16T00:23:51;11.57;;;1.27;;
18445;SDS011;9352;50.888;4.466;2023-01-16T00:26:19;3.90;;;1.30;;
18445;SDS011;9352;50.888;4.466;2023-01-16T00:28:46;6.97;;;1.47;;
18445;SDS011;9352;50.888;4.466;2023-01-16T00:31:13;7.78;;;1.50;;
18445;SDS011;9352;50.888;4.466;2023-01-16T00:33:43;4.78;;;1.50;;
18445;SDS011;9352;50.888;4.466;2023-01-16T00:36:10;2.67;;;1.40;;
18445;SDS011;9352;50.888;4.466;2023-01-16T00:38:37;4.30;;;1.20;;
18445;SDS011;9352;50.888;4.466;2023-01-16T00:41:04;3.30;;;1.20;;
18445;SDS011;9352;50.888;4.466;2023-01-16T00:43:33;4.70;;;1.10;;
18445;SDS011;9352;50.888;4.466;2023-01-16T00:46:00;1.70;;;1.25;;
18445;SDS011;9352;50.888;4.466;2023-01-16T00:48:27;6.30;;;1.30;;
18445;SDS011;9352;50.888;4.466;2023-01-16T00:50:54;2.30;;;1.20;;
18445;SDS011;9352;50.888;4.466;2023-01-16T00:53:21;5.50;;;1.50;;
18445;SDS011;9352;50.888;4.466;2023-01-16T00:55:49;4.43;;;1.00;;
18445;SDS011;9352;50.888;4.466;2023-01-16T00:58:16;3.67;;;1.10;;
18445;SDS011;9352;50.888;4.466;2023-01-16T01:00:45;5.87;;;1.20;;
18445;SDS011;9352;50.888;4.466;2023-01-16T01:03:12;7.40;;;1.30;;
18445;SDS011;9352;50.888;4.466;2023-01-16T01:05:39;4.73;;;1.30;;
18445;SDS011;9352;50.888;4.466;2023-01-16T01:08:05;3.13;;;1.10;;
18445;SDS011;9352;50.888;4.466;2023-01-16T01:10:35;3.50;;;1.27;;
18445;SDS011;9352;50.888;4.466;2023-01-16T01:13:03;4.73;;;1.30;;
18445;SDS011;9352;50.888;4.466;2023-01-16T01:15:30;2.30;;;1.10;;
18445;SDS011;9352;50.888;4.466;2023-01-16T01:18:00;5.70;;;1.47;;
18445;SDS011;9352;50.888;4.466;2023-01-16T01:20:27;6.70;;;1.33;;
18445;SDS011;9352;50.888;4.466;2023-01-16T01:22:54;6.72;;;1.35;;
18445;SDS011;9352;50.888;4.466;2023-01-16T01:25:21;4.93;;;1.37;;
18445;SDS011;9352;50.888;4.466;2023-01-16T01:27:48;7.30;;;1.60;;
18445;SDS011;9352;50.888;4.466;2023-01-16T01:30:15;3.97;;;1.50;;
18445;SDS011;9352;50.888;4.466;2023-01-16T01:32:42;11.87;;;2.00;;
18445;SDS011;9352;50.888;4.466;2023-01-16T01:35:11;15.50;;;1.85;;
18445;SDS011;9352;50.888;4.466;2023-01-16T01:37:38;6.63;;;1.90;;
18445;SDS011;9352;50.888;4.466;2023-01-16T01:40:05;7.40;;;1.83;;
18445;SDS011;9352;50.888;4.466;2023-01-16T01:42:36;10.18;;;1.90;;
18445;SDS011;9352;50.888;4.466;2023-01-16T01:45:16;6.97;;;1.67;;
18445;SDS011;9352;50.888;4.466;2023-01-16T01:47:47;4.15;;;1.80;;
18445;SDS011;9352;50.888;4.466;2023-01-16T01:50:23;5.07;;;1.73;;
18445;SDS011;9352;50.888;4.466;2023-01-16T01:53:01;6.93;;;1.70;;
18445;SDS011;9352;50.888;4.466;2023-01-16T01:55:33;8.07;;;1.90;;
18445;SDS011;9352;50.888;4.466;2023-01-16T01:58:00;11.50;;;1.90;;
18445;SDS011;9352;50.888;4.466;2023-01-16T02:00:28;10.37;;;1.90;;
18445;SDS011;9352;50.888;4.466;2023-01-16T02:02:57;9.10;;;1.73;;
18445;SDS011;9352;50.888;4.466;2023-01-16T02:05:30;5.83;;;1.70;;
18445;SDS011;9352;50.888;4.466;2023-01-16T02:08:01;8.47;;;2.23;;
18445;SDS011;9352;50.888;4.466;2023-01-16T02:10:31;13.20;;;2.67;;
18445;SDS011;9352;50.888;4.466;2023-01-16T02:13:02;13.37;;;2.10;;
18445;SDS011;9352;50.888;4.466;2023-01-16T02:15:30;8.80;;;1.90;;
18445;SDS011;9352;50.888;4.466;2023-01-16T02:17:57;6.27;;;1.87;;
18445;SDS011;9352;50.888;4.466;2023-01-16T02:20:56;9.23;;;1.87;;
18445;SDS011;9352;50.888;4.466;2023-01-16T02:26:53;8.00;;;1.80;;
18445;SDS011;9352;50.888;4.466;2023-01-16T02:29:35;10.53;;;1.93;;
18445;SDS011;9352;50.888;4.466;2023-01-16T02:32:33;8.32;;;1.70;;
18445;SDS011;9352;50.888;4.466;2023-01-16T02:35:27;9.93;;;2.00;;
18445;SDS011;9352;50.888;4.466;2023-01-16T02:38:05;7.27;;;1.80;;
18445;SDS011;9352;50.888;4.466;2023-01-16T02:40:39;4.05;;;1.50;;
18445;SDS011;9352;50.888;4.466;2023-01-16T02:43:15;8.90;;;1.63;;
18445;SDS011;9352;50.888;4.466;2023-01-16T02:45:48;11.30;;;1.97;;
18445;SDS011;9352;50.888;4.466;2023-01-16T02:48:23;12.70;;;1.73;;
18445;SDS011;9352;50.888;4.466;2023-01-16T02:50:55;8.37;;;2.03;;
18445;SDS011;9352;50.888;4.466;2023-01-16T02:53:28;6.82;;;2.00;;
18445;SDS011;9352;50.888;4.466;2023-01-16T02:55:59;5.93;;;1.70;;
18445;SDS011;9352;50.888;4.466;2023-01-16T02:58:33;9.18;;;2.17;;
18445;SDS011;9352;50.888;4.466;2023-01-16T03:01:05;7.95;;;1.88;;
18445;SDS011;9352;50.888;4.466;2023-01-16T03:03:41;9.10;;;2.15;;
18445;SDS011;9352;50.888;4.466;2023-01-16T03:06:15;8.07;;;2.17;;
18445;SDS011;9352;50.888;4.466;2023-01-16T03:08:57;9.63;;;1.70;;
18445;SDS011;9352;50.888;4.466;2023-01-16T03:11:33;8.13;;;1.97;;
18445;SDS011;9352;50.888;4.466;2023-01-16T03:14:10;8.73;;;1.65;;
18445;SDS011;9352;50.888;4.466;2023-01-16T03:16:48;11.75;;;1.73;;
18445;SDS011;9352;50.888;4.466;2023-01-16T03:19:29;9.45;;;1.83;;
18445;SDS011;9352;50.888;4.466;2023-01-16T03:22:10;6.68;;;1.70;;
18445;SDS011;9352;50.888;4.466;2023-01-16T03:24:43;8.00;;;1.60;;
18445;SDS011;9352;50.888;4.466;2023-01-16T03:27:28;5.95;;;1.48;;
18445;SDS011;9352;50.888;4.466;2023-01-16T03:30:07;6.47;;;1.73;;
18445;SDS011;9352;50.888;4.466;2023-01-16T03:32:37;6.40;;;1.50;;
18445;SDS011;9352;50.888;4.466;2023-01-16T03:35:12;3.83;;;1.40;;
18445;SDS011;9352;50.888;4.466;2023-01-16T03:37:45;5.67;;;1.53;;
18445;SDS011;9352;50.888;4.466;2023-01-16T03:40:17;6.95;;;1.52;;
18445;SDS011;9352;50.888;4.466;2023-01-16T03:42:49;6.38;;;1.60;;
18445;SDS011;9352;50.888;4.466;2023-01-16T03:45:21;6.25;;;1.38;;
18445;SDS011;9352;50.888;4.466;2023-01-16T03:47:54;8.95;;;1.50;;
18445;SDS011;9352;50.888;4.466;2023-01-16T03:50:31;2.33;;;1.40;;
18445;SDS011;9352;50.888;4.466;2023-01-16T03:53:05;12.27;;;1.85;;
18445;SDS011;9352;50.888;4.466;2023-01-16T03:55:38;9.10;;;1.55;;
18445;SDS011;9352;50.888;4.466;2023-01-16T03:58:10;7.53;;;1.73;;
18445;SDS011;9352;50.888;4.466;2023-01-16T04:00:46;4.43;;;1.30;;
18445;SDS011;9352;50.888;4.466;2023-01-16T04:03:24;5.55;;;1.17;;
18445;SDS011;9352;50.888;4.466;2023-01-16T04:05:56;8.88;;;1.60;;
18445;SDS011;9352;50.888;4.466;2023-01-16T04:08:31;7.20;;;1.27;;
18445;SDS011;9352;50.888;4.466;2023-01-16T04:11:03;7.23;;;1.20;;
18445;SDS011;9352;50.888;4.466;2023-01-16T04:13:32;9.57;;;1.70;;
18445;SDS011;9352;50.888;4.466;2023-01-16T04:16:02;8.30;;;2.30;;
18445;SDS011;9352;50.888;4.466;2023-01-16T04:18:33;9.18;;;1.40;;
18445;SDS011;9352;50.888;4.466;2023-01-16T04:21:04;14.77;;;1.80;;
18445;SDS011;9352;50.888;4.466;2023-01-16T04:23:32;8.68;;;1.40;;
18445;SDS011;9352;50.888;4.466;2023-01-16T04:25:59;7.28;;;1.42;;
18445;SDS011;9352;50.888;4.466;2023-01-16T04:28:26;2.78;;;1.27;;
18445;SDS011;9352;50.888;4.466;2023-01-16T04:30:53;3.85;;;1.30;;
18445;SDS011;9352;50.888;4.466;2023-01-16T04:33:20;3.17;;;1.23;;
18445;SDS011;9352;50.888;4.466;2023-01-16T04:35:47;4.95;;;1.42;;
18445;SDS011;9352;50.888;4.466;2023-01-16T04:38:18;10.93;;;1.40;;
18445;SDS011;9352;50.888;4.466;2023-01-16T04:40:45;5.00;;;1.30;;
18445;SDS011;9352;50.888;4.466;2023-01-16T04:43:12;6.93;;;1.48;;
18445;SDS011;9352;50.888;4.466;2023-01-16T04:45:39;7.65;;;1.45;;
18445;SDS011;9352;50.888;4.466;2023-01-16T04:48:06;3.45;;;1.35;;
18445;SDS011;9352;50.888;4.466;2023-01-16T04:50:33;12.35;;;1.80;;
18445;SDS011;9352;50.888;4.466;2023-01-16T04:52:59;8.18;;;1.40;;
18445;SDS011;9352;50.888;4.466;2023-01-16T04:55:28;6.60;;;1.50;;
18445;SDS011;9352;50.888;4.466;2023-01-16T04:57:55;7.35;;;1.48;;
18445;SDS011;9352;50.888;4.466;2023-01-16T05:00:21;7.72;;;1.55;;
18445;SDS011;9352;50.888;4.466;2023-01-16T05:02:48;11.87;;;1.70;;
18445;SDS011;9352;50.888;4.466;2023-01-16T05:05:15;9.50;;;1.80;;
18445;SDS011;9352;50.888;4.466;2023-01-16T05:07:42;11.25;;;1.58;;
18445;SDS011;9352;50.888;4.466;2023-01-16T05:10:10;6.22;;;1.35;;
18445;SDS011;9352;50.888;4.466;2023-01-16T05:12:38;16.97;;;1.83;;
18445;SDS011;9352;50.888;4.466;2023-01-16T05:15:05;8.30;;;1.70;;
18445;SDS011;9352;50.888;4.466;2023-01-16T05:17:33;8.37;;;1.80;;
18445;SDS011;9352;50.888;4.466;2023-01-16T05:20:00;9.23;;;1.38;;
18445;SDS011;9352;50.888;4.466;2023-01-16T05:22:27;6.63;;;1.40;;
18445;SDS011;9352;50.888;4.466;2023-01-16T05:24:54;5.70;;;1.27;;
18445;SDS011;9352;50.888;4.466;2023-01-16T05:27:21;5.78;;;1.67;;
18445;SDS011;9352;50.888;4.466;2023-01-16T05:29:49;6.32;;;1.65;;
18445;SDS011;9352;50.888;4.466;2023-01-16T05:32:16;8.80;;;1.60;;
18445;SDS011;9352;50.888;4.466;2023-01-16T05:34:43;10.32;;;1.42;;
18445;SDS011;9352;50.888;4.466;2023-01-16T05:37:09;2.85;;;1.25;;
18445;SDS011;9352;50.888;4.466;2023-01-16T05:39:36;5.45;;;1.08;;
18445;SDS011;9352;50.888;4.466;2023-01-16T05:42:03;2.83;;;1.10;;
18445;SDS011;9352;50.888;4.466;2023-01-16T05:44:45;5.27;;;1.40;;
18445;SDS011;9352;50.888;4.466;2023-01-16T05:47:14;4.43;;;1.08;;
18445;SDS011;9352;50.888;4.466;2023-01-16T05:49:41;7.20;;;1.45;;
18445;SDS011;9352;50.888;4.466;2023-01-16T05:52:10;5.53;;;1.20;;
18445;SDS011;9352;50.888;4.466;2023-01-16T05:54:38;3.70;;;1.10;;
18445;SDS011;9352;50.888;4.466;2023-01-16T05:57:05;1.83;;;1.17;;
18445;SDS011;9352;50.888;4.466;2023-01-16T05:59:34;3.97;;;1.20;;
18445;SDS011;9352;50.888;4.466;2023-01-16T06:02:01;1.83;;;0.73;;
18445;SDS011;9352;50.888;4.466;2023-01-16T06:04:29;3.70;;;1.03;;
18445;SDS011;9352;50.888;4.466;2023-01-16T06:06:56;3.17;;;0.97;;
18445;SDS011;9352;50.888;4.466;2023-01-16T06:09:23;1.67;;;0.97;;
18445;SDS011;9352;50.888;4.466;2023-01-16T06:11:50;2.50;;;0.80;;
18445;SDS011;9352;50.888;4.466;2023-01-16T06:14:17;4.05;;;0.90;;
18445;SDS011;9352;50.888;4.466;2023-01-16T06:16:44;0.98;;;0.70;;
18445;SDS011;9352;50.888;4.466;2023-01-16T06:19:11;2.75;;;0.80;;
18445;SDS011;9352;50.888;4.466;2023-01-16T06:21:39;2.28;;;0.75;;
18445;SDS011;9352;50.888;4.466;2023-01-16T06:24:06;2.80;;;0.90;;
18445;SDS011;9352;50.888;4.466;2023-01-16T06:26:33;4.93;;;1.03;;
18445;SDS011;9352;50.888;4.466;2023-01-16T06:29:00;3.80;;;0.90;;
18445;SDS011;9352;50.888;4.466;2023-01-16T06:31:27;1.77;;;0.80;;
18445;SDS011;9352;50.888;4.466;2023-01-16T06:33:55;2.77;;;0.70;;
18445;SDS011;9352;50.888;4.466;2023-01-16T06:36:22;1.77;;;0.80;;
18445;SDS011;9352;50.888;4.466;2023-01-16T06:38:50;0.63;;;0.63;;
18445;SDS011;9352;50.888;4.466;2023-01-16T06:41:17;1.97;;;0.83;;
18445;SDS011;9352;50.888;4.466;2023-01-16T06:43:44;3.33;;;0.80;;
18445;SDS011;9352;50.888;4.466;2023-01-16T06:46:11;3.40;;;0.97;;
18445;SDS011;9352;50.888;4.466;2023-01-16T06:48:38;5.07;;;1.02;;
18445;SDS011;9352;50.888;4.466;2023-01-16T06:51:06;1.23;;;0.90;;
18445;SDS011;9352;50.888;4.466;2023-01-16T06:53:34;1.35;;;0.75;;
18445;SDS011;9352;50.888;4.466;2023-01-16T06:56:02;2.55;;;0.90;;
18445;SDS011;9352;50.888;4.466;2023-01-16T06:58:30;0.75;;;0.65;;
18445;SDS011;9352;50.888;4.466;2023-01-16T07:00:57;3.77;;;0.80;;
18445;SDS011;9352;50.888;4.466;2023-01-16T07:03:24;3.00;;;1.00;;
18445;SDS011;9352;50.888;4.466;2023-01-16T07:05:50;1.37;;;0.73;;
18445;SDS011;9352;50.888;4.466;2023-01-16T07:08:17;1.50;;;0.80;;
18445;SDS011;9352;50.888;4.466;2023-01-16T07:10:44;1.03;;;0.90;;
18445;SDS011;9352;50.888;4.466;2023-01-16T07:13:13;0.83;;;0.80;;
18445;SDS011;9352;50.888;4.466;2023-01-16T07:15:40;1.63;;;1.05;;
18445;SDS011;9352;50.888;4.466;2023-01-16T07:18:30;0.90;;;0.90;;
18445;SDS011;9352;50.888;4.466;2023-01-16T07:21:15;0.60;;;0.60;;
18445;SDS011;9352;50.888;4.466;2023-01-16T07:24:00;2.30;;;0.80;;
18445;SDS011;9352;50.888;4.466;2023-01-16T07:26:31;0.80;;;0.77;;
18445;SDS011;9352;50.888;4.466;2023-01-16T07:29:00;0.60;;;0.60;;
18445;SDS011;9352;50.888;4.466;2023-01-16T07:31:28;0.83;;;0.70;;
18445;SDS011;9352;50.888;4.466;2023-01-16T07:33:57;1.90;;;0.70;;
18445;SDS011;9352;50.888;4.466;2023-01-16T07:36:24;0.93;;;0.90;;
18445;SDS011;9352;50.888;4.466;2023-01-16T07:38:51;0.70;;;0.70;;
18445;SDS011;9352;50.888;4.466;2023-01-16T07:41:18;2.23;;;0.60;;
18445;SDS011;9352;50.888;4.466;2023-01-16T07:43:45;0.60;;;0.60;;
18445;SDS011;9352;50.888;4.466;2023-01-16T07:46:13;0.63;;;0.63;;
18445;SDS011;9352;50.888;4.466;2023-01-16T07:48:40;0.50;;;0.50;;
18445;SDS011;9352;50.888;4.466;2023-01-16T07:51:07;1.40;;;0.70;;
18445;SDS011;9352;50.888;4.466;2023-01-16T07:53:34;1.23;;;1.08;;
18445;SDS011;9352;50.888;4.466;2023-01-16T07:56:01;0.60;;;0.60;;
18445;SDS011;9352;50.888;4.466;2023-01-16T07:58:28;0.40;;;0.40;;
18445;SDS011;9352;50.888;4.466;2023-01-16T08:00:56;0.50;;;0.50;;
18445;SDS011;9352;50.888;4.466;2023-01-16T08:03:25;0.70;;;0.70;;
18445;SDS011;9352;50.888;4.466;2023-01-16T08:05:54;0.50;;;0.50;;
18445;SDS011;9352;50.888;4.466;2023-01-16T08:08:21;0.40;;;0.40;;
18445;SDS011;9352;50.888;4.466;2023-01-16T08:10:52;1.60;;;0.70;;
18445;SDS011;9352;50.888;4.466;2023-01-16T08:13:19;0.97;;;0.97;;
18445;SDS011;9352;50.888;4.466;2023-01-16T08:15:46;0.63;;;0.63;;
18445;SDS011;9352;50.888;4.466;2023-01-16T08:18:13;1.10;;;0.67;;
18445;SDS011;9352;50.888;4.466;2023-01-16T08:20:41;0.70;;;0.70;;
18445;SDS011;9352;50.888;4.466;2023-01-16T08:23:09;0.63;;;0.63;;
18445;SDS011;9352;50.888;4.466;2023-01-16T08:25:36;0.80;;;0.80;;
18445;SDS011;9352;50.888;4.466;2023-01-16T08:28:04;1.70;;;0.90;;
18445;SDS011;9352;50.888;4.466;2023-01-16T08:30:31;1.52;;;0.80;;
18445;SDS011;9352;50.888;4.466;2023-01-16T08:32:58;0.70;;;0.70;;
18445;SDS011;9352;50.888;4.466;2023-01-16T08:35:26;0.73;;;0.73;;
18445;SDS011;9352;50.888;4.466;2023-01-16T08:37:55;0.65;;;0.65;;
18445;SDS011;9352;50.888;4.466;2023-01-16T08:40:22;0.63;;;0.60;;
18445;SDS011;9352;50.888;4.466;2023-01-16T08:42:49;0.50;;;0.50;;
18445;SDS011;9352;50.888;4.466;2023-01-16T08:45:34;0.60;;;0.60;;
18445;SDS011;9352;50.888;4.466;2023-01-16T08:48:20;0.70;;;0.70;;
18445;SDS011;9352;50.888;4.466;2023-01-16T08:51:21;0.77;;;0.77;;
18445;SDS011;9352;50.888;4.466;2023-01-16T08:53:50;0.77;;;0.77;;
18445;SDS011;9352;50.888;4.466;2023-01-16T08:56:18;2.00;;;0.90;;
18445;SDS011;9352;50.888;4.466;2023-01-16T08:58:44;0.83;;;0.80;;
18445;SDS011;9352;50.888;4.466;2023-01-16T09:01:11;1.90;;;1.10;;
18445;SDS011;9352;50.888;4.466;2023-01-16T09:03:38;4.60;;;0.80;;
18445;SDS011;9352;50.888;4.466;2023-01-16T09:06:05;0.60;;;0.60;;
18445;SDS011;9352;50.888;4.466;2023-01-16T09:08:32;3.22;;;1.08;;
18445;SDS011;9352;50.888;4.466;2023-01-16T09:11:01;2.53;;;1.00;;
18445;SDS011;9352;50.888;4.466;2023-01-16T09:13:47;4.72;;;1.25;;
18445;SDS011;9352;50.888;4.466;2023-01-16T09:16:17;1.20;;;1.10;;
18445;SDS011;9352;50.888;4.466;2023-01-16T09:18:45;1.20;;;1.13;;
18445;SDS011;9352;50.888;4.466;2023-01-16T09:21:12;2.40;;;1.37;;
18445;SDS011;9352;50.888;4.466;2023-01-16T09:23:39;1.50;;;1.00;;
18445;SDS011;9352;50.888;4.466;2023-01-16T09:26:08;2.00;;;1.60;;
18445;SDS011;9352;50.888;4.466;2023-01-16T09:28:35;3.97;;;1.30;;
18445;SDS011;9352;50.888;4.466;2023-01-16T09:31:02;1.75;;;1.17;;
18445;SDS011;9352;50.888;4.466;2023-01-16T09:33:29;1.48;;;1.13;;
18445;SDS011;9352;50.888;4.466;2023-01-16T09:35:56;1.75;;;1.20;;
18445;SDS011;9352;50.888;4.466;2023-01-16T09:38:23;3.60;;;1.30;;
18445;SDS011;9352;50.888;4.466;2023-01-16T09:40:51;1.13;;;1.00;;
18445;SDS011;9352;50.888;4.466;2023-01-16T09:43:27;4.20;;;1.48;;
18445;SDS011;9352;50.888;4.466;2023-01-16T09:46:03;3.10;;;1.17;;
18445;SDS011;9352;50.888;4.466;2023-01-16T09:48:35;1.07;;;1.07;;
18445;SDS011;9352;50.888;4.466;2023-01-16T09:51:07;1.80;;;1.15;;
18445;SDS011;9352;50.888;4.466;2023-01-16T09:53:39;1.13;;;1.02;;
18445;SDS011;9352;50.888;4.466;2023-01-16T09:56:31;1.40;;;1.00;;
18445;SDS011;9352;50.888;4.466;2023-01-16T09:59:27;1.55;;;1.20;;
18445;SDS011;9352;50.888;4.466;2023-01-16T10:02:00;1.75;;;1.20;;
18445;SDS011;9352;50.888;4.466;2023-01-16T10:04:35;1.60;;;1.10;;
18445;SDS011;9352;50.888;4.466;2023-01-16T10:07:09;2.00;;;1.00;;
18445;SDS011;9352;50.888;4.466;2023-01-16T10:09:48;0.95;;;0.90;;
18445;SDS011;9352;50.888;4.466;2023-01-16T10:12:21;1.65;;;0.85;;
18445;SDS011;9352;50.888;4.466;2023-01-16T10:15:01;0.90;;;0.90;;
18445;SDS011;9352;50.888;4.466;2023-01-16T10:17:35;1.85;;;0.60;;
18445;SDS011;9352;50.888;4.466;2023-01-16T10:20:20;0.93;;;0.88;;
18445;SDS011;9352;50.888;4.466;2023-01-16T10:23:06;2.15;;;0.85;;
18445;SDS011;9352;50.888;4.466;2023-01-16T10:25:43;0.82;;;0.70;;
18445;SDS011;9352;50.888;4.466;2023-01-16T10:28:16;0.82;;;0.80;;
18445;SDS011;9352;50.888;4.466;2023-01-16T10:30:54;0.82;;;0.70;;
18445;SDS011;9352;50.888;4.466;2023-01-16T10:33:28;0.88;;;0.88;;
18445;SDS011;9352;50.888;4.466;2023-01-16T10:35:58;4.72;;;2.63;;
18445;SDS011;9352;50.888;4.466;2023-01-16T10:38:32;7.78;;;3.30;;
18445;SDS011;9352;50.888;4.466;2023-01-16T10:41:12;6.85;;;4.20;;
18445;SDS011;9352;50.888;4.466;2023-01-16T10:44:01;1.40;;;0.93;;
18445;SDS011;9352;50.888;4.466;2023-01-16T10:46:50;3.13;;;1.00;;
18445;SDS011;9352;50.888;4.466;2023-01-16T10:49:34;0.80;;;0.80;;
18445;SDS011;9352;50.888;4.466;2023-01-16T10:52:02;1.33;;;1.05;;
18445;SDS011;9352;50.888;4.466;2023-01-16T10:54:31;1.60;;;1.30;;
18445;SDS011;9352;50.888;4.466;2023-01-16T10:56:58;3.87;;;1.60;;
18445;SDS011;9352;50.888;4.466;2023-01-16T10:59:28;5.25;;;2.25;;
18445;SDS011;9352;50.888;4.466;2023-01-16T11:02:00;2.95;;;2.15;;
18445;SDS011;9352;50.888;4.466;2023-01-16T11:04:38;1.25;;;1.15;;
18445;SDS011;9352;50.888;4.466;2023-01-16T11:07:13;2.40;;;2.20;;
18445;SDS011;9352;50.888;4.466;2023-01-16T11:09:42;3.72;;;1.80;;
18445;SDS011;9352;50.888;4.466;2023-01-16T11:12:10;1.50;;;1.45;;
18445;SDS011;9352;50.888;4.466;2023-01-16T11:14:59;1.52;;;1.00;;
18445;SDS011;9352;50.888;4.466;2023-01-16T11:17:50;2.20;;;1.20;;
18445;SDS011;9352;50.888;4.466;2023-01-16T11:20:36;2.57;;;1.60;;
18445;SDS011;9352;50.888;4.466;2023-01-16T11:23:05;3.40;;;2.40;;
18445;SDS011;9352;50.888;4.466;2023-01-16T11:25:42;3.67;;;1.67;;
18445;SDS011;9352;50.888;4.466;2023-01-16T11:28:11;4.50;;;1.65;;
18445;SDS011;9352;50.888;4.466;2023-01-16T11:30:46;3.47;;;2.20;;
18445;SDS011;9352;50.888;4.466;2023-01-16T11:33:17;1.20;;;1.10;;
18445;SDS011;9352;50.888;4.466;2023-01-16T11:35:49;3.13;;;1.25;;
18445;SDS011;9352;50.888;4.466;2023-01-16T11:38:19;3.97;;;2.03;;
18445;SDS011;9352;50.888;4.466;2023-01-16T11:40:48;2.03;;;1.60;;
18445;SDS011;9352;50.888;4.466;2023-01-16T11:43:17;2.17;;;1.23;;
18445;SDS011;9352;50.888;4.466;2023-01-16T11:46:09;1.95;;;1.30;;
18445;SDS011;9352;50.888;4.466;2023-01-16T11:48:58;1.92;;;1.67;;
18445;SDS011;9352;50.888;4.466;2023-01-16T11:51:27;1.40;;;1.30;;
18445;SDS011;9352;50.888;4.466;2023-01-16T11:53:56;1.38;;;1.27;;
18445;SDS011;9352;50.888;4.466;2023-01-16T12:02:17;2.47;;;1.20;;
18445;SDS011;9352;50.888;4.466;2023-01-16T12:05:08;1.38;;;1.27;;
18445;SDS011;9352;50.888;4.466;2023-01-16T12:08:04;1.15;;;1.13;;
18445;SDS011;9352;50.888;4.466;2023-01-16T12:10:47;2.22;;;1.50;;
18445;SDS011;9352;50.888;4.466;2023-01-16T12:13:21;2.88;;;1.40;;
18445;SDS011;9352;50.888;4.466;2023-01-16T12:16:14;1.47;;;1.37;;
18445;SDS011;9352;50.888;4.466;2023-01-16T12:18:47;2.90;;;1.30;;
18445;SDS011;9352;50.888;4.466;2023-01-16T12:21:31;1.42;;;1.30;;
18445;SDS011;9352;50.888;4.466;2023-01-16T12:24:10;1.63;;;1.33;;
18445;SDS011;9352;50.888;4.466;2023-01-16T12:26:50;1.98;;;1.00;;
18445;SDS011;9352;50.888;4.466;2023-01-16T12:29:26;0.85;;;0.85;;
18445;SDS011;9352;50.888;4.466;2023-01-16T12:32:07;2.00;;;1.05;;
18445;SDS011;9352;50.888;4.466;2023-01-16T12:34:45;1.48;;;0.95;;
18445;SDS011;9352;50.888;4.466;2023-01-16T12:37:34;1.65;;;1.00;;
18445;SDS011;9352;50.888;4.466;2023-01-16T12:40:17;0.75;;;0.75;;
18445;SDS011;9352;50.888;4.466;2023-01-16T12:42:56;0.90;;;0.90;;
18445;SDS011;9352;50.888;4.466;2023-01-16T12:45:47;0.98;;;0.82;;
18445;SDS011;9352;50.888;4.466;2023-01-16T12:51:30;1.65;;;1.00;;
18445;SDS011;9352;50.888;4.466;2023-01-16T12:54:14;1.10;;;1.10;;
18445;SDS011;9352;50.888;4.466;2023-01-16T12:57:05;2.25;;;1.15;;
18445;SDS011;9352;50.888;4.466;2023-01-16T12:59:43;1.00;;;1.00;;
18445;SDS011;9352;50.888;4.466;2023-01-16T13:02:16;1.27;;;1.17;;
18445;SDS011;9352;50.888;4.466;2023-01-16T13:04:49;3.90;;;1.60;;
18445;SDS011;9352;50.888;4.466;2023-01-16T13:07:21;2.75;;;1.20;;
18445;SDS011;9352;50.888;4.466;2023-01-16T13:09:54;1.10;;;1.10;;
18445;SDS011;9352;50.888;4.466;2023-01-16T13:12:41;2.35;;;1.20;;
18445;SDS011;9352;50.888;4.466;2023-01-16T13:15:28;1.60;;;1.10;;
18445;SDS011;9352;50.888;4.466;2023-01-16T13:18:01;1.60;;;1.50;;
18445;SDS011;9352;50.888;4.466;2023-01-16T13:20:35;1.70;;;1.60;;
18445;SDS011;9352;50.888;4.466;2023-01-16T13:23:04;1.30;;;1.30;;
18445;SDS011;9352;50.888;4.466;2023-01-16T13:25:41;1.63;;;1.48;;
18445;SDS011;9352;50.888;4.466;2023-01-16T13:28:14;2.67;;;1.27;;
18445;SDS011;9352;50.888;4.466;2023-01-16T13:30:50;1.45;;;1.45;;
18445;SDS011;9352;50.888;4.466;2023-01-16T13:33:19;1.20;;;1.20;;
18445;SDS011;9352;50.888;4.466;2023-01-16T13:35:50;6.53;;;1.60;;
18445;SDS011;9352;50.888;4.466;2023-01-16T13:38:39;1.63;;;1.52;;
18445;SDS011;9352;50.888;4.466;2023-01-16T13:41:18;1.88;;;1.40;;
18445;SDS011;9352;50.888;4.466;2023-01-16T13:43:50;1.40;;;1.40;;
18445;SDS011;9352;50.888;4.466;2023-01-16T13:46:39;4.20;;;1.48;;
18445;SDS011;9352;50.888;4.466;2023-01-16T13:49:07;1.92;;;1.60;;
18445;SDS011;9352;50.888;4.466;2023-01-16T13:51:43;1.88;;;1.67;;
18445;SDS011;9352;50.888;4.466;2023-01-16T13:54:13;2.05;;;1.60;;
18445;SDS011;9352;50.888;4.466;2023-01-16T13:56:47;2.05;;;1.85;;
18445;SDS011;9352;50.888;4.466;2023-01-16T13:59:28;1.70;;;1.60;;
18445;SDS011;9352;50.888;4.466;2023-01-16T14:02:02;1.67;;;1.58;;
18445;SDS011;9352;50.888;4.466;2023-01-16T14:07:49;1.92;;;1.60;;
18445;SDS011;9352;50.888;4.466;2023-01-16T14:10:49;1.52;;;1.42;;
18445;SDS011;9352;50.888;4.466;2023-01-16T14:13:32;2.00;;;1.52;;
18445;SDS011;9352;50.888;4.466;2023-01-16T14:18:59;1.85;;;1.75;;
18445;SDS011;9352;50.888;4.466;2023-01-16T14:21:39;1.80;;;1.70;;
18445;SDS011;9352;50.888;4.466;2023-01-16T14:24:11;5.15;;;2.33;;
18445;SDS011;9352;50.888;4.466;2023-01-16T14:26:42;2.70;;;2.30;;
18445;SDS011;9352;50.888;4.466;2023-01-16T14:29:19;2.33;;;1.92;;
18445;SDS011;9352;50.888;4.466;2023-01-16T14:31:53;3.83;;;2.20;;
18445;SDS011;9352;50.888;4.466;2023-01-16T14:34:22;2.70;;;2.15;;
18445;SDS011;9352;50.888;4.466;2023-01-16T14:36:52;2.67;;;2.30;;
18445;SDS011;9352;50.888;4.466;2023-01-16T14:39:25;2.30;;;2.05;;
18445;SDS011;9352;50.888;4.466;2023-01-16T14:41:55;3.58;;;2.10;;
18445;SDS011;9352;50.888;4.466;2023-01-16T14:47:52;4.78;;;2.28;;
18445;SDS011;9352;50.888;4.466;2023-01-16T14:50:43;4.13;;;2.17;;
18445;SDS011;9352;50.888;4.466;2023-01-16T14:53:34;2.47;;;2.27;;
18445;SDS011;9352;50.888;4.466;2023-01-16T14:56:23;2.40;;;2.30;;
18445;SDS011;9352;50.888;4.466;2023-01-16T14:58:54;2.80;;;2.50;;
18445;SDS011;9352;50.888;4.466;2023-01-16T15:01:28;2.63;;;2.28;;
18445;SDS011;9352;50.888;4.466;2023-01-16T15:04:17;2.35;;;2.13;;
18445;SDS011;9352;50.888;4.466;2023-01-16T15:06:48;2.40;;;1.70;;
18445;SDS011;9352;50.888;4.466;2023-01-16T15:09:20;2.67;;;1.67;;
18445;SDS011;9352;50.888;4.466;2023-01-16T15:11:49;2.07;;;1.87;;
18445;SDS011;9352;50.888;4.466;2023-01-16T15:14:20;5.60;;;1.70;;
18445;SDS011;9352;50.888;4.466;2023-01-16T15:17:04;3.47;;;2.30;;
18445;SDS011;9352;50.888;4.466;2023-01-16T15:19:57;2.00;;;1.90;;
18445;SDS011;9352;50.888;4.466;2023-01-16T15:23:00;2.77;;;2.20;;
18445;SDS011;9352;50.888;4.466;2023-01-16T15:25:35;4.55;;;2.40;;
18445;SDS011;9352;50.888;4.466;2023-01-16T15:28:13;5.72;;;2.28;;
18445;SDS011;9352;50.888;4.466;2023-01-16T15:30:47;3.58;;;2.45;;
18445;SDS011;9352;50.888;4.466;2023-01-16T15:33:25;2.75;;;2.55;;
18445;SDS011;9352;50.888;4.466;2023-01-16T15:39:00;4.45;;;3.58;;
18445;SDS011;9352;50.888;4.466;2023-01-16T15:41:33;3.92;;;3.55;;
18445;SDS011;9352;50.888;4.466;2023-01-16T15:44:18;2.83;;;2.60;;
18445;SDS011;9352;50.888;4.466;2023-01-16T15:47:21;5.53;;;3.08;;
18445;SDS011;9352;50.888;4.466;2023-01-16T15:50:20;3.38;;;3.03;;
18445;SDS011;9352;50.888;4.466;2023-01-16T15:52:54;5.45;;;4.30;;
18445;SDS011;9352;50.888;4.466;2023-01-16T15:55:24;5.30;;;4.53;;
18445;SDS011;9352;50.888;4.466;2023-01-16T15:57:54;5.90;;;4.67;;
18445;SDS011;9352;50.888;4.466;2023-01-16T16:00:30;4.77;;;4.20;;